Georgia Highway — 7JCV — position and weather

sailwx.info

Track history (hours):
 
Tides and Currents Weather Stations Pressure Air Temp Water Temp Dewpoint Dewpoint Depression Visibility Wind Speed Wind Dir Waves Ship Positions

Georgia Highway

Last reported at 2014-Aug-29 22:22 UTC. Time now 2014-Sep-03 02:21 UTC.
Position N 50°24' W 001°26'.

Length 199 m; draft 8.7 m.

Type: Cargo ship. MMSI: 432629000.

Date/timePositionNaut miles runAvg speedWind from/ knotsBaromVisibWave heightAir tempDewpointWater temp
2014-Aug-29 22:22N 50°24' W 001°26'1113.1
2014-Aug-29 21:33N 50°29' W 001°12'1312.6
2014-Aug-29 20:33N 50°38' W 000°58'1111.0
2014-Aug-29 19:34N 50°46' W 001°11'9 9.0
2014-Aug-29 18:33N 50°52' W 001°22'2 1.9
2014-Aug-29 17:31N 50°53' W 001°24'0 0.0
2014-Aug-29 16:31N 50°53' W 001°24'0 0.0
2014-Aug-29 15:22N 50°53' W 001°24'0 0.0
2014-Aug-29 14:22N 50°53' W 001°24'0 0.0
2014-Aug-29 13:31N 50°53' W 001°24'0 0.0
2014-Aug-29 12:31N 50°53' W 001°24'0 0.0
2014-Aug-29 11:22N 50°53' W 001°24'0 0.0
2014-Aug-29 10:28N 50°53' W 001°24'0 0.0
2014-Aug-29 09:31N 50°53' W 001°24'0 0.0
2014-Aug-29 08:23N 50°53' W 001°24'6 6.7
2014-Aug-29 07:34N 50°49' W 001°18'10 9.8
2014-Aug-29 06:34N 50°44' W 001°05'9 9.2
2014-Aug-29 05:33N 50°38' W 000°54'0 0.5
2014-Aug-29 04:33N 50°37' W 000°54'1514.7
2014-Aug-29 03:33N 50°36' W 000°31'1817.6
2014-Aug-29 02:33N 50°32' W 000°04'1818.1
2014-Aug-29 01:33N 50°36' E 000°24'1717.0
2014-Aug-29 00:33N 50°44' E 000°48'1616.4
2014-Aug-28 23:33N 50°55' E 001°08'1817.9
2014-Aug-28 22:34N 51°05' E 001°30'2019.6
2014-Aug-28 21:34N 51°20' E 001°51'1919.1
2014-Aug-28 20:33N 51°35' E 002°10'1918.5
2014-Aug-28 19:33N 51°49' E 002°29'3617.3
2014-Aug-28 17:28N 52°16' E 003°07'1516.2
2014-Aug-28 16:33N 52°29' E 003°19'1616.2
2014-Aug-28 15:32N 52°42' E 003°38'1716.9
2014-Aug-28 14:33N 52°55' E 003°55'1818.2
2014-Aug-28 13:33N 53°07' E 004°17'5217.0
2014-Aug-28 10:31N 53°39' E 005°25'4715.7
2014-Aug-28 07:33N 53°53' E 006°41'1615.6
2014-Aug-28 06:33N 53°56' E 007°06'1616.4
2014-Aug-28 05:33N 53°60' E 007°34'1413.8
2014-Aug-28 04:33N 53°52' E 007°54'1615.7
2014-Aug-28 03:34N 53°44' E 008°16'1413.8
2014-Aug-28 02:33N 53°34' E 008°33'1 0.7
2014-Aug-28 01:33N 53°35' E 008°33'0 0.1
2014-Aug-28 00:32N 53°35' E 008°33'0 0.0
2014-Aug-27 23:32N 53°35' E 008°33'0 0.0
2014-Aug-27 22:29N 53°35' E 008°33'0 0.0
2014-Aug-27 21:32N 53°35' E 008°33'0 0.0
2014-Aug-27 20:29N 53°35' E 008°33'0 0.0
2014-Aug-27 19:32N 53°35' E 008°33'0 0.0
2014-Aug-27 18:32N 53°35' E 008°33'0 0.0
2014-Aug-27 17:29N 53°35' E 008°33'0 0.0
2014-Aug-27 16:32N 53°35' E 008°33'0 0.0
2014-Aug-27 15:32N 53°35' E 008°33'0 0.0
2014-Aug-27 14:32N 53°35' E 008°33'0 0.0
2014-Aug-27 13:32N 53°35' E 008°33'0 0.0
2014-Aug-27 12:32N 53°35' E 008°33'0 0.0
2014-Aug-27 11:29N 53°35' E 008°33'0 0.0
2014-Aug-27 10:32N 53°35' E 008°33'0 0.0
2014-Aug-27 09:32N 53°35' E 008°33'0 0.0
2014-Aug-27 08:32N 53°35' E 008°33'0 0.0
2014-Aug-27 07:23N 53°35' E 008°33'0 0.0
2014-Aug-27 06:32N 53°35' E 008°33'0 0.0
2014-Aug-27 05:32N 53°35' E 008°33'0 0.0
2014-Aug-27 04:32N 53°35' E 008°33'0 0.0
2014-Aug-27 03:32N 53°35' E 008°33'0 0.0
2014-Aug-27 02:32N 53°35' E 008°33'0 0.0
2014-Aug-27 01:32N 53°35' E 008°33'0 0.0
2014-Aug-27 00:32N 53°35' E 008°33'0 0.0
2014-Aug-26 23:32N 53°35' E 008°33'0 0.0
2014-Aug-26 22:29N 53°35' E 008°33'0 0.0
2014-Aug-26 21:32N 53°35' E 008°33'0 0.0
2014-Aug-26 20:32N 53°35' E 008°33'0 0.5
2014-Aug-26 19:32N 53°34' E 008°33'1 1.1
2014-Aug-26 18:33N 53°35' E 008°32'1212.2
2014-Aug-26 17:34N 53°43' E 008°16'1515.2
2014-Aug-26 16:33N 53°52' E 007°55'6115.3
2014-Aug-26 12:33N 53°43' E 006°13'1817.7
2014-Aug-26 11:33N 53°38' E 005°44'1817.6
2014-Aug-26 10:33N 53°32' E 005°16'1817.8
2014-Aug-26 09:33N 53°25' E 004°49'1817.9
2014-Aug-26 08:32N 53°10' E 004°30'1818.1
2014-Aug-26 07:32N 52°54' E 004°18'1717.8
2014-Aug-26 06:34N 52°39' E 004°03'1818.0
2014-Aug-26 05:33N 52°27' E 003°41'5618.6
2014-Aug-26 02:33N 51°45' E 002°42'1918.8
2014-Aug-26 01:33N 51°26' E 002°42'1010.2
2014-Aug-26 00:33N 51°25' E 002°59'1010.1
2014-Aug-25 23:33N 51°20' E 003°13'1 0.5
2014-Aug-25 22:33N 51°20' E 003°13'2 1.7
2014-Aug-25 21:32N 51°18' E 003°14'0 0.0
2014-Aug-25 20:32N 51°18' E 003°14'0 0.0
2014-Aug-25 19:32N 51°18' E 003°14'0 0.0
2014-Aug-25 18:32N 51°18' E 003°14'0 0.0
2014-Aug-25 17:32N 51°18' E 003°14'0 0.0
2014-Aug-25 16:32N 51°18' E 003°14'0 0.0
2014-Aug-25 15:32N 51°18' E 003°14'0 0.0
2014-Aug-25 14:32N 51°18' E 003°14'0 0.0
2014-Aug-25 13:32N 51°18' E 003°14'0 0.4
2014-Aug-25 12:33N 51°18' E 003°14'2 1.7
2014-Aug-25 11:31N 51°20' E 003°13'5 5.4
2014-Aug-25 10:33N 51°24' E 003°07'1211.8
2014-Aug-25 09:33N 51°21' E 002°48'8 8.1
2014-Aug-25 08:33N 51°21' E 002°36'1 0.7
2014-Aug-25 07:33N 51°22' E 002°36'1313.0
2014-Aug-25 06:33N 51°17' E 002°16'1515.3
2014-Aug-25 05:33N 51°10' E 001°55'1615.7
2014-Aug-25 04:33N 50°60' E 001°36'2116.5
2014-Aug-25 03:18N 50°41' E 001°22'1716.7
2014-Aug-25 02:18N 50°30' E 001°02'1316.8
2014-Aug-25 01:33N 50°26' E 000°44'1716.7
2014-Aug-25 00:33N 50°21' E 000°19'  
Track history (hours):
 
Tides and Currents Weather Stations Pressure Air Temp Water Temp Dewpoint Dewpoint Depression Visibility Wind Speed Wind Dir Waves Ship Positions

Georgia Highway

Last reported at 2014-Aug-29 22:22 UTC. Time now 2014-Sep-03 02:21 UTC.
Position N 50°24' W 001°26'.

Length 199 m; draft 8.7 m.

Type: Cargo ship. MMSI: 432629000.

Date/timePositionNaut miles runAvg speedWind from/ knotsBaromVisibWave heightAir tempDewpointWater temp
2014-Aug-29 22:22N 50°24' W 001°26'1113.1
2014-Aug-29 21:33N 50°29' W 001°12'1312.6
2014-Aug-29 20:33N 50°38' W 000°58'1111.0
2014-Aug-29 19:34N 50°46' W 001°11'9 9.0
2014-Aug-29 18:33N 50°52' W 001°22'2 1.9
2014-Aug-29 17:31N 50°53' W 001°24'0 0.0
2014-Aug-29 16:31N 50°53' W 001°24'0 0.0
2014-Aug-29 15:22N 50°53' W 001°24'0 0.0
2014-Aug-29 14:22N 50°53' W 001°24'0 0.0
2014-Aug-29 13:31N 50°53' W 001°24'0 0.0
2014-Aug-29 12:31N 50°53' W 001°24'0 0.0
2014-Aug-29 11:22N 50°53' W 001°24'0 0.0
2014-Aug-29 10:28N 50°53' W 001°24'0 0.0
2014-Aug-29 09:31N 50°53' W 001°24'0 0.0
2014-Aug-29 08:23N 50°53' W 001°24'6 6.7
2014-Aug-29 07:34N 50°49' W 001°18'10 9.8
2014-Aug-29 06:34N 50°44' W 001°05'9 9.2
2014-Aug-29 05:33N 50°38' W 000°54'0 0.5
2014-Aug-29 04:33N 50°37' W 000°54'1514.7
2014-Aug-29 03:33N 50°36' W 000°31'1817.6
2014-Aug-29 02:33N 50°32' W 000°04'1818.1
2014-Aug-29 01:33N 50°36' E 000°24'1717.0
2014-Aug-29 00:33N 50°44' E 000°48'1616.4
2014-Aug-28 23:33N 50°55' E 001°08'1817.9
2014-Aug-28 22:34N 51°05' E 001°30'2019.6
2014-Aug-28 21:34N 51°20' E 001°51'1919.1
2014-Aug-28 20:33N 51°35' E 002°10'1918.5
2014-Aug-28 19:33N 51°49' E 002°29'3617.3
2014-Aug-28 17:28N 52°16' E 003°07'1516.2
2014-Aug-28 16:33N 52°29' E 003°19'1616.2
2014-Aug-28 15:32N 52°42' E 003°38'1716.9
2014-Aug-28 14:33N 52°55' E 003°55'1818.2
2014-Aug-28 13:33N 53°07' E 004°17'5217.0
2014-Aug-28 10:31N 53°39' E 005°25'4715.7
2014-Aug-28 07:33N 53°53' E 006°41'1615.6
2014-Aug-28 06:33N 53°56' E 007°06'1616.4
2014-Aug-28 05:33N 53°60' E 007°34'1413.8
2014-Aug-28 04:33N 53°52' E 007°54'1615.7
2014-Aug-28 03:34N 53°44' E 008°16'1413.8
2014-Aug-28 02:33N 53°34' E 008°33'1 0.7
2014-Aug-28 01:33N 53°35' E 008°33'0 0.1
2014-Aug-28 00:32N 53°35' E 008°33'0 0.0
2014-Aug-27 23:32N 53°35' E 008°33'0 0.0
2014-Aug-27 22:29N 53°35' E 008°33'0 0.0
2014-Aug-27 21:32N 53°35' E 008°33'0 0.0
2014-Aug-27 20:29N 53°35' E 008°33'0 0.0
2014-Aug-27 19:32N 53°35' E 008°33'0 0.0
2014-Aug-27 18:32N 53°35' E 008°33'0 0.0
2014-Aug-27 17:29N 53°35' E 008°33'0 0.0
2014-Aug-27 16:32N 53°35' E 008°33'0 0.0
2014-Aug-27 15:32N 53°35' E 008°33'0 0.0
2014-Aug-27 14:32N 53°35' E 008°33'0 0.0
2014-Aug-27 13:32N 53°35' E 008°33'0 0.0
2014-Aug-27 12:32N 53°35' E 008°33'0 0.0
2014-Aug-27 11:29N 53°35' E 008°33'0 0.0
2014-Aug-27 10:32N 53°35' E 008°33'0 0.0
2014-Aug-27 09:32N 53°35' E 008°33'0 0.0
2014-Aug-27 08:32N 53°35' E 008°33'0 0.0
2014-Aug-27 07:23N 53°35' E 008°33'0 0.0
2014-Aug-27 06:32N 53°35' E 008°33'0 0.0
2014-Aug-27 05:32N 53°35' E 008°33'0 0.0
2014-Aug-27 04:32N 53°35' E 008°33'0 0.0
2014-Aug-27 03:32N 53°35' E 008°33'0 0.0
2014-Aug-27 02:32N 53°35' E 008°33'0 0.0
2014-Aug-27 01:32N 53°35' E 008°33'0 0.0
2014-Aug-27 00:32N 53°35' E 008°33'0 0.0
2014-Aug-26 23:32N 53°35' E 008°33'0 0.0
2014-Aug-26 22:29N 53°35' E 008°33'0 0.0
2014-Aug-26 21:32N 53°35' E 008°33'0 0.0
2014-Aug-26 20:32N 53°35' E 008°33'0 0.5
2014-Aug-26 19:32N 53°34' E 008°33'1 1.1
2014-Aug-26 18:33N 53°35' E 008°32'1212.2
2014-Aug-26 17:34N 53°43' E 008°16'1515.2
2014-Aug-26 16:33N 53°52' E 007°55'6115.3
2014-Aug-26 12:33N 53°43' E 006°13'1817.7
2014-Aug-26 11:33N 53°38' E 005°44'1817.6
2014-Aug-26 10:33N 53°32' E 005°16'1817.8
2014-Aug-26 09:33N 53°25' E 004°49'1817.9
2014-Aug-26 08:32N 53°10' E 004°30'1818.1
2014-Aug-26 07:32N 52°54' E 004°18'1717.8
2014-Aug-26 06:34N 52°39' E 004°03'1818.0
2014-Aug-26 05:33N 52°27' E 003°41'5618.6
2014-Aug-26 02:33N 51°45' E 002°42'1918.8
2014-Aug-26 01:33N 51°26' E 002°42'1010.2
2014-Aug-26 00:33N 51°25' E 002°59'1010.1
2014-Aug-25 23:33N 51°20' E 003°13'1 0.5
2014-Aug-25 22:33N 51°20' E 003°13'2 1.7
2014-Aug-25 21:32N 51°18' E 003°14'0 0.0
2014-Aug-25 20:32N 51°18' E 003°14'0 0.0
2014-Aug-25 19:32N 51°18' E 003°14'0 0.0
2014-Aug-25 18:32N 51°18' E 003°14'0 0.0
2014-Aug-25 17:32N 51°18' E 003°14'0 0.0
2014-Aug-25 16:32N 51°18' E 003°14'0 0.0
2014-Aug-25 15:32N 51°18' E 003°14'0 0.0
2014-Aug-25 14:32N 51°18' E 003°14'0 0.0
2014-Aug-25 13:32N 51°18' E 003°14'0 0.4
2014-Aug-25 12:33N 51°18' E 003°14'2 1.7
2014-Aug-25 11:31N 51°20' E 003°13'5 5.4
2014-Aug-25 10:33N 51°24' E 003°07'1211.8
2014-Aug-25 09:33N 51°21' E 002°48'8 8.1
2014-Aug-25 08:33N 51°21' E 002°36'1 0.7
2014-Aug-25 07:33N 51°22' E 002°36'1313.0
2014-Aug-25 06:33N 51°17' E 002°16'1515.3
2014-Aug-25 05:33N 51°10' E 001°55'1615.7
2014-Aug-25 04:33N 50°60' E 001°36'2116.5
2014-Aug-25 03:18N 50°41' E 001°22'1716.7
2014-Aug-25 02:18N 50°30' E 001°02'1316.8
2014-Aug-25 01:33N 50°26' E 000°44'1716.7
2014-Aug-25 00:33N 50°21' E 000°19'  

Dump ship's entire track history